sensor_id;sensor_type;location;lat;lon;timestamp;temperature;humidity
15574;DHT22;7888;46.748;8.102;2023-08-20T11:58:52;35.90;33.70
15574;DHT22;7888;46.748;8.102;2023-08-20T12:01:18;36.00;33.50
15574;DHT22;7888;46.748;8.102;2023-08-20T12:03:45;36.10;33.40
15574;DHT22;7888;46.748;8.102;2023-08-20T12:06:18;36.10;33.00
15574;DHT22;7888;46.748;8.102;2023-08-20T12:08:45;36.20;32.50
15574;DHT22;7888;46.748;8.102;2023-08-20T12:11:12;36.20;32.80
15574;DHT22;7888;46.748;8.102;2023-08-20T12:13:38;36.30;32.40
15574;DHT22;7888;46.748;8.102;2023-08-20T12:16:04;36.40;32.80
15574;DHT22;7888;46.748;8.102;2023-08-20T12:18:30;36.50;32.60
15574;DHT22;7888;46.748;8.102;2023-08-20T12:20:56;36.50;32.40
15574;DHT22;7888;46.748;8.102;2023-08-20T12:23:22;36.60;32.30
15574;DHT22;7888;46.748;8.102;2023-08-20T12:25:51;36.70;32.00
15574;DHT22;7888;46.748;8.102;2023-08-20T12:28:18;36.80;31.60
15574;DHT22;7888;46.748;8.102;2023-08-20T12:30:44;36.80;31.70
15574;DHT22;7888;46.748;8.102;2023-08-20T12:33:11;36.90;31.50
15574;DHT22;7888;46.748;8.102;2023-08-20T12:35:37;36.90;31.50
15574;DHT22;7888;46.748;8.102;2023-08-20T12:38:03;37.00;31.30
15574;DHT22;7888;46.748;8.102;2023-08-20T12:40:30;37.10;31.30
15574;DHT22;7888;46.748;8.102;2023-08-20T12:42:56;37.20;31.20
15574;DHT22;7888;46.748;8.102;2023-08-20T12:45:22;37.20;31.00
15574;DHT22;7888;46.748;8.102;2023-08-20T12:47:47;37.40;31.10
15574;DHT22;7888;46.748;8.102;2023-08-20T12:50:13;37.40;30.80
15574;DHT22;7888;46.748;8.102;2023-08-20T12:52:40;37.50;30.70
15574;DHT22;7888;46.748;8.102;2023-08-20T12:55:06;37.50;30.60
15574;DHT22;7888;46.748;8.102;2023-08-20T12:57:34;37.60;30.50
15574;DHT22;7888;46.748;8.102;2023-08-20T13:00:01;37.60;30.30
15574;DHT22;7888;46.748;8.102;2023-08-20T13:02:33;37.70;30.20
15574;DHT22;7888;46.748;8.102;2023-08-20T13:04:59;37.80;30.10
15574;DHT22;7888;46.748;8.102;2023-08-20T13:07:25;37.80;30.40
15574;DHT22;7888;46.748;8.102;2023-08-20T13:09:54;37.90;30.20
15574;DHT22;7888;46.748;8.102;2023-08-20T13:12:23;37.90;30.30
15574;DHT22;7888;46.748;8.102;2023-08-20T13:14:52;38.00;30.00
15574;DHT22;7888;46.748;8.102;2023-08-20T13:17:18;38.10;29.90
15574;DHT22;7888;46.748;8.102;2023-08-20T13:19:44;38.20;29.80
15574;DHT22;7888;46.748;8.102;2023-08-20T13:22:10;38.30;29.80
15574;DHT22;7888;46.748;8.102;2023-08-20T13:24:36;38.30;29.70
15574;DHT22;7888;46.748;8.102;2023-08-20T13:27:01;38.40;29.50
15574;DHT22;7888;46.748;8.102;2023-08-20T13:29:27;38.40;29.60
15574;DHT22;7888;46.748;8.102;2023-08-20T13:31:53;38.50;29.60
15574;DHT22;7888;46.748;8.102;2023-08-20T13:34:18;38.50;29.60
15574;DHT22;7888;46.748;8.102;2023-08-20T13:36:44;38.50;29.50
15574;DHT22;7888;46.748;8.102;2023-08-20T13:39:11;38.60;29.30
15574;DHT22;7888;46.748;8.102;2023-08-20T13:41:39;38.50;29.30
15574;DHT22;7888;46.748;8.102;2023-08-20T13:44:06;38.50;29.20
15574;DHT22;7888;46.748;8.102;2023-08-20T13:46:33;38.40;29.30
15574;DHT22;7888;46.748;8.102;2023-08-20T13:48:59;38.40;29.70
15574;DHT22;7888;46.748;8.102;2023-08-20T13:51:25;38.30;29.40
15574;DHT22;7888;46.748;8.102;2023-08-20T13:53:54;38.30;29.10
15574;DHT22;7888;46.748;8.102;2023-08-20T13:56:19;38.20;29.00
15574;DHT22;7888;46.748;8.102;2023-08-20T13:58:45;38.10;29.10
15574;DHT22;7888;46.748;8.102;2023-08-20T14:01:11;38.00;29.40
15574;DHT22;7888;46.748;8.102;2023-08-20T14:03:39;38.00;29.60
15574;DHT22;7888;46.748;8.102;2023-08-20T14:06:05;38.00;29.60
15574;DHT22;7888;46.748;8.102;2023-08-20T14:08:32;37.90;29.60
15574;DHT22;7888;46.748;8.102;2023-08-20T14:10:58;37.90;29.80
15574;DHT22;7888;46.748;8.102;2023-08-20T14:13:23;37.90;29.70
15574;DHT22;7888;46.748;8.102;2023-08-20T14:15:49;37.90;29.70
15574;DHT22;7888;46.748;8.102;2023-08-20T14:18:15;37.90;29.80
15574;DHT22;7888;46.748;8.102;2023-08-20T14:20:41;37.90;30.50
15574;DHT22;7888;46.748;8.102;2023-08-20T14:23:07;37.90;30.50
15574;DHT22;7888;46.748;8.102;2023-08-20T14:25:32;37.90;30.80
15574;DHT22;7888;46.748;8.102;2023-08-20T14:27:58;37.90;30.80
15574;DHT22;7888;46.748;8.102;2023-08-20T14:30:24;37.80;31.00
15574;DHT22;7888;46.748;8.102;2023-08-20T14:32:49;37.80;31.10
15574;DHT22;7888;46.748;8.102;2023-08-20T14:35:15;37.80;31.50
15574;DHT22;7888;46.748;8.102;2023-08-20T14:37:41;37.80;31.50
15574;DHT22;7888;46.748;8.102;2023-08-20T14:40:07;37.80;31.20
15574;DHT22;7888;46.748;8.102;2023-08-20T14:42:35;37.70;31.20
15574;DHT22;7888;46.748;8.102;2023-08-20T14:45:01;37.70;31.10
15574;DHT22;7888;46.748;8.102;2023-08-20T14:47:29;37.70;31.30
15574;DHT22;7888;46.748;8.102;2023-08-20T14:49:55;37.70;31.40
15574;DHT22;7888;46.748;8.102;2023-08-20T14:52:21;37.70;31.50
15574;DHT22;7888;46.748;8.102;2023-08-20T14:54:49;37.60;31.30
15574;DHT22;7888;46.748;8.102;2023-08-20T14:57:15;37.60;31.30
15574;DHT22;7888;46.748;8.102;2023-08-20T14:59:43;37.60;31.60
15574;DHT22;7888;46.748;8.102;2023-08-20T15:02:09;37.60;31.40
15574;DHT22;7888;46.748;8.102;2023-08-20T15:04:34;37.60;31.30
15574;DHT22;7888;46.748;8.102;2023-08-20T15:07:00;37.60;31.40
15574;DHT22;7888;46.748;8.102;2023-08-20T15:09:26;37.60;31.00
15574;DHT22;7888;46.748;8.102;2023-08-20T15:11:52;37.60;30.60
15574;DHT22;7888;46.748;8.102;2023-08-20T15:14:17;37.70;30.60
15574;DHT22;7888;46.748;8.102;2023-08-20T15:16:45;37.70;30.40
15574;DHT22;7888;46.748;8.102;2023-08-20T15:19:10;37.70;30.40
15574;DHT22;7888;46.748;8.102;2023-08-20T15:21:36;37.70;30.80
15574;DHT22;7888;46.748;8.102;2023-08-20T15:24:02;37.70;30.60
15574;DHT22;7888;46.748;8.102;2023-08-20T15:26:29;37.70;30.60
15574;DHT22;7888;46.748;8.102;2023-08-20T15:28:55;37.70;31.40
15574;DHT22;7888;46.748;8.102;2023-08-20T15:31:20;37.60;30.80
15574;DHT22;7888;46.748;8.102;2023-08-20T15:33:47;37.60;31.60
15574;DHT22;7888;46.748;8.102;2023-08-20T15:36:13;37.50;31.70
15574;DHT22;7888;46.748;8.102;2023-08-20T15:38:38;37.40;32.10
15574;DHT22;7888;46.748;8.102;2023-08-20T15:41:05;37.40;32.70
15574;DHT22;7888;46.748;8.102;2023-08-20T15:43:30;37.40;32.40
15574;DHT22;7888;46.748;8.102;2023-08-20T15:45:56;37.40;32.30
15574;DHT22;7888;46.748;8.102;2023-08-20T15:48:22;37.30;32.10
15574;DHT22;7888;46.748;8.102;2023-08-20T15:50:48;37.30;32.20
15574;DHT22;7888;46.748;8.102;2023-08-20T15:53:14;37.30;32.50
15574;DHT22;7888;46.748;8.102;2023-08-20T15:55:39;37.20;32.70
15574;DHT22;7888;46.748;8.102;2023-08-20T15:58:05;37.10;32.80
15574;DHT22;7888;46.748;8.102;2023-08-20T16:00:31;37.10;33.10
15574;DHT22;7888;46.748;8.102;2023-08-20T16:02:57;37.00;33.60
15574;DHT22;7888;46.748;8.102;2023-08-20T16:05:23;36.90;33.90
15574;DHT22;7888;46.748;8.102;2023-08-20T16:07:48;36.90;34.00
15574;DHT22;7888;46.748;8.102;2023-08-20T16:10:14;36.90;34.20
15574;DHT22;7888;46.748;8.102;2023-08-20T16:12:41;36.90;34.00
15574;DHT22;7888;46.748;8.102;2023-08-20T16:15:07;37.00;33.80
15574;DHT22;7888;46.748;8.102;2023-08-20T16:17:33;37.00;33.50
15574;DHT22;7888;46.748;8.102;2023-08-20T16:19:59;37.00;33.90
15574;DHT22;7888;46.748;8.102;2023-08-20T16:22:25;37.10;33.90
15574;DHT22;7888;46.748;8.102;2023-08-20T16:24:53;37.10;33.60
15574;DHT22;7888;46.748;8.102;2023-08-20T16:27:18;37.10;33.50
15574;DHT22;7888;46.748;8.102;2023-08-20T16:29:44;37.00;33.40
15574;DHT22;7888;46.748;8.102;2023-08-20T16:32:10;37.00;33.80
15574;DHT22;7888;46.748;8.102;2023-08-20T16:34:36;37.00;33.80
15574;DHT22;7888;46.748;8.102;2023-08-20T16:37:02;37.00;34.00
15574;DHT22;7888;46.748;8.102;2023-08-20T16:39:28;37.00;34.10
15574;DHT22;7888;46.748;8.102;2023-08-20T16:41:54;37.00;34.20
15574;DHT22;7888;46.748;8.102;2023-08-20T16:44:20;36.90;34.40
15574;DHT22;7888;46.748;8.102;2023-08-20T16:46:47;36.90;34.70
15574;DHT22;7888;46.748;8.102;2023-08-20T16:49:13;36.90;34.80
15574;DHT22;7888;46.748;8.102;2023-08-20T16:51:38;36.80;34.60
15574;DHT22;7888;46.748;8.102;2023-08-20T16:54:04;36.80;34.40
15574;DHT22;7888;46.748;8.102;2023-08-20T16:56:30;36.70;34.30
15574;DHT22;7888;46.748;8.102;2023-08-20T16:58:57;36.70;34.60
15574;DHT22;7888;46.748;8.102;2023-08-20T17:01:24;36.60;34.40
15574;DHT22;7888;46.748;8.102;2023-08-20T17:03:49;36.60;35.10
15574;DHT22;7888;46.748;8.102;2023-08-20T17:06:16;36.50;35.40
15574;DHT22;7888;46.748;8.102;2023-08-20T17:08:45;36.40;35.80
15574;DHT22;7888;46.748;8.102;2023-08-20T17:11:12;36.30;35.90
15574;DHT22;7888;46.748;8.102;2023-08-20T17:13:38;36.20;36.20
15574;DHT22;7888;46.748;8.102;2023-08-20T17:16:05;36.10;36.30
15574;DHT22;7888;46.748;8.102;2023-08-20T17:18:32;36.10;36.30
15574;DHT22;7888;46.748;8.102;2023-08-20T17:20:59;36.00;36.30
15574;DHT22;7888;46.748;8.102;2023-08-20T17:23:25;35.90;36.30
15574;DHT22;7888;46.748;8.102;2023-08-20T17:25:55;35.80;36.40
15574;DHT22;7888;46.748;8.102;2023-08-20T17:28:24;35.70;36.50
15574;DHT22;7888;46.748;8.102;2023-08-20T17:30:50;35.60;36.10
15574;DHT22;7888;46.748;8.102;2023-08-20T17:33:16;35.50;35.60
15574;DHT22;7888;46.748;8.102;2023-08-20T17:35:42;35.40;35.90
15574;DHT22;7888;46.748;8.102;2023-08-20T17:38:09;35.30;35.80
15574;DHT22;7888;46.748;8.102;2023-08-20T17:40:36;35.30;36.10
15574;DHT22;7888;46.748;8.102;2023-08-20T17:43:02;35.20;35.70
15574;DHT22;7888;46.748;8.102;2023-08-20T17:45:29;35.10;36.40
15574;DHT22;7888;46.748;8.102;2023-08-20T17:47:54;35.00;35.90
15574;DHT22;7888;46.748;8.102;2023-08-20T17:50:20;34.90;36.20
15574;DHT22;7888;46.748;8.102;2023-08-20T17:52:46;34.90;36.90
15574;DHT22;7888;46.748;8.102;2023-08-20T17:55:13;34.80;37.30
15574;DHT22;7888;46.748;8.102;2023-08-20T17:57:38;34.70;36.60
15574;DHT22;7888;46.748;8.102;2023-08-20T18:00:07;34.70;36.40
15574;DHT22;7888;46.748;8.102;2023-08-20T18:02:37;34.60;36.50
15574;DHT22;7888;46.748;8.102;2023-08-20T18:05:03;34.50;36.70
15574;DHT22;7888;46.748;8.102;2023-08-20T18:07:31;34.40;36.90
15574;DHT22;7888;46.748;8.102;2023-08-20T18:10:00;34.30;37.20
15574;DHT22;7888;46.748;8.102;2023-08-20T18:12:27;34.30;37.40
15574;DHT22;7888;46.748;8.102;2023-08-20T18:14:52;34.20;37.10
15574;DHT22;7888;46.748;8.102;2023-08-20T18:17:18;34.10;37.20
15574;DHT22;7888;46.748;8.102;2023-08-20T18:19:44;34.10;37.30
15574;DHT22;7888;46.748;8.102;2023-08-20T18:22:09;34.00;37.40
15574;DHT22;7888;46.748;8.102;2023-08-20T18:24:35;33.90;37.60
15574;DHT22;7888;46.748;8.102;2023-08-20T18:27:01;33.80;37.80
15574;DHT22;7888;46.748;8.102;2023-08-20T18:29:26;33.70;38.00
15574;DHT22;7888;46.748;8.102;2023-08-20T18:31:52;33.60;37.70
15574;DHT22;7888;46.748;8.102;2023-08-20T18:34:18;33.60;37.60
15574;DHT22;7888;46.748;8.102;2023-08-20T18:36:44;33.50;38.00
15574;DHT22;7888;46.748;8.102;2023-08-20T18:39:11;33.40;38.10
15574;DHT22;7888;46.748;8.102;2023-08-20T18:41:40;33.30;38.20
15574;DHT22;7888;46.748;8.102;2023-08-20T18:44:06;33.20;38.50
15574;DHT22;7888;46.748;8.102;2023-08-20T18:46:32;33.20;38.10
15574;DHT22;7888;46.748;8.102;2023-08-20T18:48:58;33.10;37.80
15574;DHT22;7888;46.748;8.102;2023-08-20T18:51:25;33.00;37.70
15574;DHT22;7888;46.748;8.102;2023-08-20T18:53:51;33.00;38.00
15574;DHT22;7888;46.748;8.102;2023-08-20T18:56:17;32.90;38.00
15574;DHT22;7888;46.748;8.102;2023-08-20T18:58:43;32.80;38.50
15574;DHT22;7888;46.748;8.102;2023-08-20T19:01:09;32.80;38.30
15574;DHT22;7888;46.748;8.102;2023-08-20T19:03:36;32.70;38.50
15574;DHT22;7888;46.748;8.102;2023-08-20T19:06:02;32.60;38.80
15574;DHT22;7888;46.748;8.102;2023-08-20T19:08:29;32.50;38.60
15574;DHT22;7888;46.748;8.102;2023-08-20T19:11:01;32.40;38.80
15574;DHT22;7888;46.748;8.102;2023-08-20T19:13:28;32.40;38.80
15574;DHT22;7888;46.748;8.102;2023-08-20T19:15:54;32.30;38.80
15574;DHT22;7888;46.748;8.102;2023-08-20T19:18:21;32.30;38.90
15574;DHT22;7888;46.748;8.102;2023-08-20T19:20:54;32.10;39.10
15574;DHT22;7888;46.748;8.102;2023-08-20T19:23:21;32.10;39.10
15574;DHT22;7888;46.748;8.102;2023-08-20T19:25:50;32.10;39.10
15574;DHT22;7888;46.748;8.102;2023-08-20T19:28:16;32.00;39.10
15574;DHT22;7888;46.748;8.102;2023-08-20T19:33:09;31.90;39.50
15574;DHT22;7888;46.748;8.102;2023-08-20T19:35:35;31.90;39.40
15574;DHT22;7888;46.748;8.102;2023-08-20T19:38:00;31.90;39.60
15574;DHT22;7888;46.748;8.102;2023-08-20T19:40:27;31.90;39.60
15574;DHT22;7888;46.748;8.102;2023-08-20T19:42:53;31.80;39.50
15574;DHT22;7888;46.748;8.102;2023-08-20T19:45:19;31.80;39.70
15574;DHT22;7888;46.748;8.102;2023-08-20T19:47:45;31.80;39.60
15574;DHT22;7888;46.748;8.102;2023-08-20T19:50:11;31.80;39.60
15574;DHT22;7888;46.748;8.102;2023-08-20T19:52:36;31.70;39.70
15574;DHT22;7888;46.748;8.102;2023-08-20T19:55:02;31.70;39.80
15574;DHT22;7888;46.748;8.102;2023-08-20T19:57:28;31.70;39.80
15574;DHT22;7888;46.748;8.102;2023-08-20T19:59:54;31.70;39.90
15574;DHT22;7888;46.748;8.102;2023-08-20T20:02:20;31.60;39.90
15574;DHT22;7888;46.748;8.102;2023-08-20T20:04:46;31.60;40.00
15574;DHT22;7888;46.748;8.102;2023-08-20T20:07:12;31.60;40.10
15574;DHT22;7888;46.748;8.102;2023-08-20T20:09:38;31.50;40.50
15574;DHT22;7888;46.748;8.102;2023-08-20T20:12:04;31.60;40.00
15574;DHT22;7888;46.748;8.102;2023-08-20T20:14:30;31.50;39.90
15574;DHT22;7888;46.748;8.102;2023-08-20T20:16:56;31.50;40.00
15574;DHT22;7888;46.748;8.102;2023-08-20T20:19:21;31.40;40.10
15574;DHT22;7888;46.748;8.102;2023-08-20T20:21:50;31.40;40.30
15574;DHT22;7888;46.748;8.102;2023-08-20T20:24:16;31.40;40.50
15574;DHT22;7888;46.748;8.102;2023-08-20T20:26:41;31.40;40.50
15574;DHT22;7888;46.748;8.102;2023-08-20T20:29:07;31.30;40.60
15574;DHT22;7888;46.748;8.102;2023-08-20T20:31:33;31.20;40.80
15574;DHT22;7888;46.748;8.102;2023-08-20T20:33:58;31.20;40.90
15574;DHT22;7888;46.748;8.102;2023-08-20T20:36:24;31.20;41.70
15574;DHT22;7888;46.748;8.102;2023-08-20T20:38:50;31.10;41.10
15574;DHT22;7888;46.748;8.102;2023-08-20T20:41:15;31.10;41.20
15574;DHT22;7888;46.748;8.102;2023-08-20T20:43:41;31.00;41.30
15574;DHT22;7888;46.748;8.102;2023-08-20T20:46:07;30.90;41.30
15574;DHT22;7888;46.748;8.102;2023-08-20T20:48:32;30.90;41.50
15574;DHT22;7888;46.748;8.102;2023-08-20T20:50:58;30.80;41.60
15574;DHT22;7888;46.748;8.102;2023-08-20T20:53:24;30.70;41.70
15574;DHT22;7888;46.748;8.102;2023-08-20T20:55:49;30.70;41.70
15574;DHT22;7888;46.748;8.102;2023-08-20T20:58:15;30.60;41.70
15574;DHT22;7888;46.748;8.102;2023-08-20T21:00:41;30.60;41.70
15574;DHT22;7888;46.748;8.102;2023-08-20T21:03:09;30.50;41.90
15574;DHT22;7888;46.748;8.102;2023-08-20T21:05:40;30.50;42.10
15574;DHT22;7888;46.748;8.102;2023-08-20T21:08:08;30.40;42.30
15574;DHT22;7888;46.748;8.102;2023-08-20T21:10:33;30.40;42.20
15574;DHT22;7888;46.748;8.102;2023-08-20T21:12:59;30.30;42.40
15574;DHT22;7888;46.748;8.102;2023-08-20T21:15:25;30.30;42.40
15574;DHT22;7888;46.748;8.102;2023-08-20T21:17:50;30.30;42.50
15574;DHT22;7888;46.748;8.102;2023-08-20T21:20:16;30.20;42.60
15574;DHT22;7888;46.748;8.102;2023-08-20T21:22:42;30.20;42.60
15574;DHT22;7888;46.748;8.102;2023-08-20T21:25:08;30.10;42.70
15574;DHT22;7888;46.748;8.102;2023-08-20T21:27:33;30.00;42.70
15574;DHT22;7888;46.748;8.102;2023-08-20T21:29:59;30.00;42.70
15574;DHT22;7888;46.748;8.102;2023-08-20T21:32:25;29.90;42.70
15574;DHT22;7888;46.748;8.102;2023-08-20T21:34:50;29.90;42.70
15574;DHT22;7888;46.748;8.102;2023-08-20T21:37:16;29.80;42.70
15574;DHT22;7888;46.748;8.102;2023-08-20T21:39:42;29.80;42.90
15574;DHT22;7888;46.748;8.102;2023-08-20T21:42:08;29.70;42.90
15574;DHT22;7888;46.748;8.102;2023-08-20T21:44:34;29.70;43.00
15574;DHT22;7888;46.748;8.102;2023-08-20T21:47:00;29.60;43.10
15574;DHT22;7888;46.748;8.102;2023-08-20T21:49:32;29.60;43.20
15574;DHT22;7888;46.748;8.102;2023-08-20T21:51:58;29.50;43.50
15574;DHT22;7888;46.748;8.102;2023-08-20T21:54:24;29.50;43.50
15574;DHT22;7888;46.748;8.102;2023-08-20T21:56:50;29.50;43.50
15574;DHT22;7888;46.748;8.102;2023-08-20T21:59:16;29.40;43.40
15574;DHT22;7888;46.748;8.102;2023-08-20T22:01:42;29.40;43.40
15574;DHT22;7888;46.748;8.102;2023-08-20T22:04:08;29.30;43.50
15574;DHT22;7888;46.748;8.102;2023-08-20T22:06:33;29.30;43.60
15574;DHT22;7888;46.748;8.102;2023-08-20T22:08:59;29.30;43.60
15574;DHT22;7888;46.748;8.102;2023-08-20T22:11:25;29.30;43.50
15574;DHT22;7888;46.748;8.102;2023-08-20T22:13:50;29.20;43.60
15574;DHT22;7888;46.748;8.102;2023-08-20T22:16:16;29.20;43.70
15574;DHT22;7888;46.748;8.102;2023-08-20T22:18:42;29.10;43.40
15574;DHT22;7888;46.748;8.102;2023-08-20T22:21:08;29.10;43.60
15574;DHT22;7888;46.748;8.102;2023-08-20T22:23:33;29.10;43.70
15574;DHT22;7888;46.748;8.102;2023-08-20T22:25:59;29.10;43.80
15574;DHT22;7888;46.748;8.102;2023-08-20T22:28:26;29.00;43.80
15574;DHT22;7888;46.748;8.102;2023-08-20T22:30:55;29.00;43.70
15574;DHT22;7888;46.748;8.102;2023-08-20T22:33:20;28.90;43.80
15574;DHT22;7888;46.748;8.102;2023-08-20T22:35:50;28.90;43.80
15574;DHT22;7888;46.748;8.102;2023-08-20T22:38:16;28.80;44.00
15574;DHT22;7888;46.748;8.102;2023-08-20T22:40:42;28.80;44.00
15574;DHT22;7888;46.748;8.102;2023-08-20T22:43:08;28.80;43.90
15574;DHT22;7888;46.748;8.102;2023-08-20T22:45:34;28.80;44.10
15574;DHT22;7888;46.748;8.102;2023-08-20T22:48:00;28.70;44.20
15574;DHT22;7888;46.748;8.102;2023-08-20T22:50:27;28.70;44.20
15574;DHT22;7888;46.748;8.102;2023-08-20T22:52:56;28.70;44.80
15574;DHT22;7888;46.748;8.102;2023-08-20T22:55:23;28.70;44.20
15574;DHT22;7888;46.748;8.102;2023-08-20T22:57:49;28.60;44.30
15574;DHT22;7888;46.748;8.102;2023-08-20T23:00:16;28.60;44.30
15574;DHT22;7888;46.748;8.102;2023-08-20T23:02:45;28.60;44.40
15574;DHT22;7888;46.748;8.102;2023-08-20T23:05:11;28.60;44.40
15574;DHT22;7888;46.748;8.102;2023-08-20T23:07:37;28.50;44.60
15574;DHT22;7888;46.748;8.102;2023-08-20T23:10:03;28.50;44.50
15574;DHT22;7888;46.748;8.102;2023-08-20T23:12:29;28.40;44.50
15574;DHT22;7888;46.748;8.102;2023-08-20T23:14:55;28.40;44.60
15574;DHT22;7888;46.748;8.102;2023-08-20T23:17:21;28.40;44.70
15574;DHT22;7888;46.748;8.102;2023-08-20T23:19:47;28.40;44.80
15574;DHT22;7888;46.748;8.102;2023-08-20T23:22:14;28.30;44.80
15574;DHT22;7888;46.748;8.102;2023-08-20T23:24:41;28.30;44.80
15574;DHT22;7888;46.748;8.102;2023-08-20T23:27:07;28.30;44.90
15574;DHT22;7888;46.748;8.102;2023-08-20T23:29:33;28.30;44.90
15574;DHT22;7888;46.748;8.102;2023-08-20T23:31:59;28.20;44.90
15574;DHT22;7888;46.748;8.102;2023-08-20T23:34:25;28.20;45.00
15574;DHT22;7888;46.748;8.102;2023-08-20T23:36:52;28.20;45.20
15574;DHT22;7888;46.748;8.102;2023-08-20T23:39:20;28.20;45.10
15574;DHT22;7888;46.748;8.102;2023-08-20T23:41:46;28.20;45.20
15574;DHT22;7888;46.748;8.102;2023-08-20T23:44:13;28.10;45.30
15574;DHT22;7888;46.748;8.102;2023-08-20T23:46:43;28.10;45.20
15574;DHT22;7888;46.748;8.102;2023-08-20T23:49:12;28.10;45.30
15574;DHT22;7888;46.748;8.102;2023-08-20T23:51:37;28.00;45.20
15574;DHT22;7888;46.748;8.102;2023-08-20T23:54:04;28.10;45.30
15574;DHT22;7888;46.748;8.102;2023-08-20T23:56:29;28.00;45.30
15574;DHT22;7888;46.748;8.102;2023-08-20T23:58:56;28.00;45.30
